sensor_id;sensor_type;location;lat;lon;timestamp;pressure;altitude;pressure_sealevel;temperature;humidity
37170;BME280;23062;13.952;100.608;2023-01-24T00:01:08;1011.28;;;28.29;51.72
37170;BME280;23062;13.952;100.608;2023-01-24T00:05:36;1011.32;;;28.30;51.87
37170;BME280;23062;13.952;100.608;2023-01-24T00:10:01;1011.36;;;28.28;51.99
37170;BME280;23062;13.952;100.608;2023-01-24T00:14:26;1011.44;;;28.28;51.92
37170;BME280;23062;13.952;100.608;2023-01-24T00:18:52;1011.48;;;28.28;51.89
37170;BME280;23062;13.952;100.608;2023-01-24T00:23:19;1011.53;;;28.27;51.90
37170;BME280;23062;13.952;100.608;2023-01-24T00:27:48;1011.62;;;28.28;51.89
37170;BME280;23062;13.952;100.608;2023-01-24T00:32:13;1011.68;;;28.28;52.10
37170;BME280;23062;13.952;100.608;2023-01-24T00:36:40;1011.77;;;28.23;52.20
37170;BME280;23062;13.952;100.608;2023-01-24T00:41:06;1011.83;;;28.20;52.21
37170;BME280;23062;13.952;100.608;2023-01-24T00:45:31;1011.90;;;28.21;52.37
37170;BME280;23062;13.952;100.608;2023-01-24T00:50:00;1011.96;;;28.20;52.37
37170;BME280;23062;13.952;100.608;2023-01-24T00:54:26;1012.05;;;28.27;51.80
37170;BME280;23062;13.952;100.608;2023-01-24T00:58:51;1012.12;;;28.30;51.32
37170;BME280;23062;13.952;100.608;2023-01-24T01:03:18;1012.16;;;28.38;50.98
37170;BME280;23062;13.952;100.608;2023-01-24T01:07:46;1012.21;;;28.42;50.67
37170;BME280;23062;13.952;100.608;2023-01-24T01:12:11;1012.26;;;28.46;50.59
37170;BME280;23062;13.952;100.608;2023-01-24T01:16:37;1012.37;;;28.50;50.17
37170;BME280;23062;13.952;100.608;2023-01-24T01:21:03;1012.48;;;28.54;49.87
37170;BME280;23062;13.952;100.608;2023-01-24T01:25:29;1012.54;;;28.59;49.57
37170;BME280;23062;13.952;100.608;2023-01-24T01:29:54;1012.54;;;28.57;49.10
37170;BME280;23062;13.952;100.608;2023-01-24T01:34:19;1012.66;;;28.49;47.37
37170;BME280;23062;13.952;100.608;2023-01-24T01:38:43;1012.75;;;28.49;46.65
37170;BME280;23062;13.952;100.608;2023-01-24T01:43:19;1012.78;;;28.51;45.05
37170;BME280;23062;13.952;100.608;2023-01-24T01:47:41;1012.84;;;28.43;43.23
37170;BME280;23062;13.952;100.608;2023-01-24T01:52:07;1012.99;;;28.47;44.02
37170;BME280;23062;13.952;100.608;2023-01-24T01:56:36;1013.03;;;28.35;47.61
37170;BME280;23062;13.952;100.608;2023-01-24T02:01:00;1013.05;;;28.27;46.31
37170;BME280;23062;13.952;100.608;2023-01-24T02:05:27;1013.16;;;28.32;45.08
37170;BME280;23062;13.952;100.608;2023-01-24T02:09:54;1013.19;;;28.36;43.93
37170;BME280;23062;13.952;100.608;2023-01-24T02:14:20;1013.28;;;28.43;43.00
37170;BME280;23062;13.952;100.608;2023-01-24T02:19:09;1013.25;;;28.42;42.11
37170;BME280;23062;13.952;100.608;2023-01-24T02:23:45;1013.31;;;28.50;41.90
37170;BME280;23062;13.952;100.608;2023-01-24T02:28:09;1013.32;;;28.57;42.69
37170;BME280;23062;13.952;100.608;2023-01-24T02:32:35;1013.30;;;28.66;43.29
37170;BME280;23062;13.952;100.608;2023-01-24T02:37:02;1013.29;;;28.72;43.30
37170;BME280;23062;13.952;100.608;2023-01-24T02:41:30;1013.29;;;28.84;43.80
37170;BME280;23062;13.952;100.608;2023-01-24T02:45:55;1013.21;;;28.90;44.05
37170;BME280;23062;13.952;100.608;2023-01-24T02:50:24;1013.20;;;28.94;44.36
37170;BME280;23062;13.952;100.608;2023-01-24T02:54:48;1013.14;;;28.96;44.67
37170;BME280;23062;13.952;100.608;2023-01-24T02:59:14;1013.11;;;28.99;44.74
37170;BME280;23062;13.952;100.608;2023-01-24T03:03:39;1013.16;;;29.02;44.90
37170;BME280;23062;13.952;100.608;2023-01-24T03:08:08;1013.12;;;29.05;45.03
37170;BME280;23062;13.952;100.608;2023-01-24T03:12:33;1013.09;;;29.07;45.26
37170;BME280;23062;13.952;100.608;2023-01-24T03:17:15;1013.14;;;29.08;45.34
37170;BME280;23062;13.952;100.608;2023-01-24T03:21:58;1013.13;;;29.11;45.49
37170;BME280;23062;13.952;100.608;2023-01-24T03:26:41;1013.13;;;29.13;45.55
37170;BME280;23062;13.952;100.608;2023-01-24T03:31:24;1013.14;;;29.14;45.70
37170;BME280;23062;13.952;100.608;2023-01-24T03:36:07;1013.08;;;29.15;45.78
37170;BME280;23062;13.952;100.608;2023-01-24T03:40:35;1013.18;;;29.18;45.89
37170;BME280;23062;13.952;100.608;2023-01-24T03:45:01;1013.15;;;29.18;45.95
37170;BME280;23062;13.952;100.608;2023-01-24T03:49:26;1013.06;;;29.20;45.94
37170;BME280;23062;13.952;100.608;2023-01-24T03:54:12;1013.04;;;29.22;45.99
37170;BME280;23062;13.952;100.608;2023-01-24T03:58:39;1012.99;;;29.23;46.04
37170;BME280;23062;13.952;100.608;2023-01-24T04:03:04;1012.87;;;29.26;46.07
37170;BME280;23062;13.952;100.608;2023-01-24T04:07:30;1012.90;;;29.28;46.07
37170;BME280;23062;13.952;100.608;2023-01-24T04:11:55;1012.87;;;29.29;46.11
37170;BME280;23062;13.952;100.608;2023-01-24T04:16:19;1012.82;;;29.30;46.08
37170;BME280;23062;13.952;100.608;2023-01-24T04:20:45;1012.73;;;29.31;46.19
37170;BME280;23062;13.952;100.608;2023-01-24T04:25:10;1012.71;;;29.33;46.25
37170;BME280;23062;13.952;100.608;2023-01-24T04:29:37;1012.67;;;29.35;46.22
37170;BME280;23062;13.952;100.608;2023-01-24T04:34:02;1012.63;;;29.36;46.16
37170;BME280;23062;13.952;100.608;2023-01-24T04:38:28;1012.55;;;29.37;46.22
37170;BME280;23062;13.952;100.608;2023-01-24T04:42:59;1012.48;;;29.39;46.27
37170;BME280;23062;13.952;100.608;2023-01-24T04:47:26;1012.33;;;29.40;46.28
37170;BME280;23062;13.952;100.608;2023-01-24T04:51:51;1012.27;;;29.42;46.29
37170;BME280;23062;13.952;100.608;2023-01-24T04:56:16;1012.21;;;29.43;46.28
37170;BME280;23062;13.952;100.608;2023-01-24T05:00:41;1012.14;;;29.44;46.32
37170;BME280;23062;13.952;100.608;2023-01-24T05:05:06;1012.08;;;29.46;46.31
37170;BME280;23062;13.952;100.608;2023-01-24T05:09:31;1012.03;;;29.48;46.40
37170;BME280;23062;13.952;100.608;2023-01-24T05:13:57;1012.02;;;29.49;46.38
37170;BME280;23062;13.952;100.608;2023-01-24T05:18:22;1011.92;;;29.50;46.41
37170;BME280;23062;13.952;100.608;2023-01-24T05:22:47;1011.95;;;29.51;46.61
37170;BME280;23062;13.952;100.608;2023-01-24T05:27:16;1011.84;;;29.53;46.50
37170;BME280;23062;13.952;100.608;2023-01-24T05:31:41;1011.70;;;29.55;46.53
37170;BME280;23062;13.952;100.608;2023-01-24T05:36:14;1011.67;;;29.57;46.56
37170;BME280;23062;13.952;100.608;2023-01-24T05:40:35;1011.52;;;29.59;46.60
37170;BME280;23062;13.952;100.608;2023-01-24T05:45:01;1011.45;;;29.61;46.68
37170;BME280;23062;13.952;100.608;2023-01-24T05:49:30;1011.32;;;29.62;46.73
37170;BME280;23062;13.952;100.608;2023-01-24T05:53:56;1011.19;;;29.63;46.79
37170;BME280;23062;13.952;100.608;2023-01-24T05:58:21;1011.11;;;29.66;46.84
37170;BME280;23062;13.952;100.608;2023-01-24T06:02:50;1010.98;;;29.68;46.82
37170;BME280;23062;13.952;100.608;2023-01-24T06:07:15;1010.92;;;29.69;46.86
37170;BME280;23062;13.952;100.608;2023-01-24T06:11:40;1010.86;;;29.70;46.85
37170;BME280;23062;13.952;100.608;2023-01-24T06:16:11;1010.76;;;29.72;46.85
37170;BME280;23062;13.952;100.608;2023-01-24T06:20:38;1010.68;;;29.73;46.90
37170;BME280;23062;13.952;100.608;2023-01-24T06:25:04;1010.59;;;29.73;46.94
37170;BME280;23062;13.952;100.608;2023-01-24T06:29:29;1010.50;;;29.75;47.20
37170;BME280;23062;13.952;100.608;2023-01-24T06:38:30;1010.44;;;29.90;45.14
37170;BME280;23062;13.952;100.608;2023-01-24T06:42:55;1010.29;;;29.91;44.88
37170;BME280;23062;13.952;100.608;2023-01-24T06:47:27;1010.19;;;29.94;44.86
37170;BME280;23062;13.952;100.608;2023-01-24T06:51:54;1010.13;;;29.95;45.25
37170;BME280;23062;13.952;100.608;2023-01-24T06:56:25;1010.03;;;29.99;45.23
37170;BME280;23062;13.952;100.608;2023-01-24T07:00:54;1009.99;;;30.01;45.13
37170;BME280;23062;13.952;100.608;2023-01-24T07:05:24;1009.93;;;30.10;44.77
37170;BME280;23062;13.952;100.608;2023-01-24T07:09:50;1009.85;;;30.09;44.86
37170;BME280;23062;13.952;100.608;2023-01-24T07:14:16;1009.81;;;30.09;45.05
37170;BME280;23062;13.952;100.608;2023-01-24T07:18:41;1009.73;;;30.07;45.21
37170;BME280;23062;13.952;100.608;2023-01-24T07:27:46;1009.62;;;30.18;44.93
37170;BME280;23062;13.952;100.608;2023-01-24T07:32:11;1009.55;;;30.16;45.06
37170;BME280;23062;13.952;100.608;2023-01-24T07:36:37;1009.45;;;30.15;45.22
37170;BME280;23062;13.952;100.608;2023-01-24T07:41:06;1009.38;;;30.14;45.29
37170;BME280;23062;13.952;100.608;2023-01-24T07:45:32;1009.28;;;30.22;44.86
37170;BME280;23062;13.952;100.608;2023-01-24T07:50:02;1009.22;;;30.26;44.76
37170;BME280;23062;13.952;100.608;2023-01-24T07:54:28;1009.15;;;30.26;44.73
37170;BME280;23062;13.952;100.608;2023-01-24T07:58:59;1009.06;;;30.24;44.88
37170;BME280;23062;13.952;100.608;2023-01-24T08:03:25;1009.04;;;30.22;44.92
37170;BME280;23062;13.952;100.608;2023-01-24T08:07:50;1008.97;;;30.34;44.68
37170;BME280;23062;13.952;100.608;2023-01-24T08:12:17;1008.96;;;30.31;44.80
37170;BME280;23062;13.952;100.608;2023-01-24T08:16:43;1008.89;;;30.29;44.86
37170;BME280;23062;13.952;100.608;2023-01-24T08:21:08;1008.75;;;30.32;44.89
37170;BME280;23062;13.952;100.608;2023-01-24T08:25:36;1008.73;;;30.33;44.66
37170;BME280;23062;13.952;100.608;2023-01-24T08:30:02;1008.70;;;30.30;44.76
37170;BME280;23062;13.952;100.608;2023-01-24T08:34:27;1008.65;;;30.30;44.77
37170;BME280;23062;13.952;100.608;2023-01-24T08:38:53;1008.69;;;30.28;44.95
37170;BME280;23062;13.952;100.608;2023-01-24T08:43:18;1008.61;;;30.29;44.78
37170;BME280;23062;13.952;100.608;2023-01-24T08:47:43;1008.60;;;30.28;44.74
37170;BME280;23062;13.952;100.608;2023-01-24T08:52:09;1008.69;;;30.29;44.67
37170;BME280;23062;13.952;100.608;2023-01-24T08:56:35;1008.66;;;30.31;44.44
37170;BME280;23062;13.952;100.608;2023-01-24T09:01:05;1008.63;;;30.33;44.04
37170;BME280;23062;13.952;100.608;2023-01-24T09:05:33;1008.64;;;30.30;44.01
37170;BME280;23062;13.952;100.608;2023-01-24T09:09:55;1008.65;;;30.31;44.13
37170;BME280;23062;13.952;100.608;2023-01-24T09:14:20;1008.67;;;30.31;44.15
37170;BME280;23062;13.952;100.608;2023-01-24T09:18:45;1008.68;;;30.31;44.20
37170;BME280;23062;13.952;100.608;2023-01-24T09:23:11;1008.71;;;30.28;44.39
37170;BME280;23062;13.952;100.608;2023-01-24T09:27:38;1008.70;;;30.29;44.45
37170;BME280;23062;13.952;100.608;2023-01-24T09:32:07;1008.76;;;30.29;44.55
37170;BME280;23062;13.952;100.608;2023-01-24T09:36:32;1008.81;;;30.29;44.53
37170;BME280;23062;13.952;100.608;2023-01-24T09:41:17;1008.81;;;30.31;44.60
37170;BME280;23062;13.952;100.608;2023-01-24T09:50:23;1008.87;;;30.32;44.59
37170;BME280;23062;13.952;100.608;2023-01-24T09:59:46;1008.91;;;30.27;44.84
37170;BME280;23062;13.952;100.608;2023-01-24T10:08:50;1008.94;;;30.37;44.27
37170;BME280;23062;13.952;100.608;2023-01-24T10:18:10;1009.02;;;30.34;44.61
37170;BME280;23062;13.952;100.608;2023-01-24T10:22:56;1009.07;;;30.37;44.64
37170;BME280;23062;13.952;100.608;2023-01-24T10:36:43;1009.19;;;30.36;45.19
37170;BME280;23062;13.952;100.608;2023-01-24T10:41:15;1009.23;;;30.37;45.06
37170;BME280;23062;13.952;100.608;2023-01-24T10:45:51;1009.29;;;30.33;45.19
37170;BME280;23062;13.952;100.608;2023-01-24T10:50:15;1009.31;;;30.32;45.31
37170;BME280;23062;13.952;100.608;2023-01-24T10:54:55;1009.38;;;30.33;45.30
37170;BME280;23062;13.952;100.608;2023-01-24T10:59:21;1009.41;;;30.33;45.39
37170;BME280;23062;13.952;100.608;2023-01-24T11:03:48;1009.43;;;30.32;45.76
37170;BME280;23062;13.952;100.608;2023-01-24T11:08:21;1009.42;;;30.33;46.00
37170;BME280;23062;13.952;100.608;2023-01-24T11:12:54;1009.41;;;30.32;46.19
37170;BME280;23062;13.952;100.608;2023-01-24T11:17:35;1009.48;;;30.31;46.40
37170;BME280;23062;13.952;100.608;2023-01-24T11:22:03;1009.50;;;30.31;46.44
37170;BME280;23062;13.952;100.608;2023-01-24T11:26:29;1009.54;;;30.32;46.60
37170;BME280;23062;13.952;100.608;2023-01-24T11:31:03;1009.62;;;30.32;46.76
37170;BME280;23062;13.952;100.608;2023-01-24T11:35:44;1009.67;;;30.32;47.03
37170;BME280;23062;13.952;100.608;2023-01-24T11:40:30;1009.72;;;30.32;47.30
37170;BME280;23062;13.952;100.608;2023-01-24T11:54:40;1009.89;;;30.32;47.71
37170;BME280;23062;13.952;100.608;2023-01-24T11:59:27;1009.96;;;30.34;47.80
37170;BME280;23062;13.952;100.608;2023-01-24T12:18:03;1010.27;;;30.03;50.50
37170;BME280;23062;13.952;100.608;2023-01-24T12:22:27;1010.34;;;30.02;50.81
37170;BME280;23062;13.952;100.608;2023-01-24T12:26:54;1010.46;;;30.03;50.91
37170;BME280;23062;13.952;100.608;2023-01-24T12:31:32;1010.52;;;30.03;50.85
37170;BME280;23062;13.952;100.608;2023-01-24T12:35:58;1010.61;;;30.14;50.40
37170;BME280;23062;13.952;100.608;2023-01-24T12:45:20;1010.70;;;30.17;50.21
37170;BME280;23062;13.952;100.608;2023-01-24T12:54:15;1010.82;;;30.15;50.34
37170;BME280;23062;13.952;100.608;2023-01-24T12:58:46;1010.87;;;30.15;50.43
37170;BME280;23062;13.952;100.608;2023-01-24T13:12:23;1011.04;;;30.13;50.67
37170;BME280;23062;13.952;100.608;2023-01-24T13:35:32;1011.28;;;30.09;50.85
37170;BME280;23062;13.952;100.608;2023-01-24T13:40:06;1011.40;;;30.09;50.84
37170;BME280;23062;13.952;100.608;2023-01-24T13:44:33;1011.50;;;30.08;50.96
37170;BME280;23062;13.952;100.608;2023-01-24T13:48:59;1011.52;;;30.07;51.04
37170;BME280;23062;13.952;100.608;2023-01-24T13:58:19;1011.63;;;30.08;51.09
37170;BME280;23062;13.952;100.608;2023-01-24T14:11:56;1011.69;;;30.05;51.15
37170;BME280;23062;13.952;100.608;2023-01-24T14:21:02;1011.80;;;30.03;51.25
37170;BME280;23062;13.952;100.608;2023-01-24T14:25:38;1011.83;;;30.02;51.30
37170;BME280;23062;13.952;100.608;2023-01-24T14:30:23;1011.86;;;30.02;51.38
37170;BME280;23062;13.952;100.608;2023-01-24T14:34:44;1011.93;;;30.02;51.50
37170;BME280;23062;13.952;100.608;2023-01-24T14:39:24;1011.95;;;30.03;51.49
37170;BME280;23062;13.952;100.608;2023-01-24T14:43:52;1012.00;;;30.02;51.42
37170;BME280;23062;13.952;100.608;2023-01-24T14:48:24;1012.04;;;30.00;51.47
37170;BME280;23062;13.952;100.608;2023-01-24T14:52:51;1012.07;;;29.99;51.49
37170;BME280;23062;13.952;100.608;2023-01-24T14:57:31;1012.07;;;29.99;51.52
37170;BME280;23062;13.952;100.608;2023-01-24T15:01:57;1012.14;;;29.99;51.54
37170;BME280;23062;13.952;100.608;2023-01-24T15:06:23;1012.16;;;29.99;51.60
37170;BME280;23062;13.952;100.608;2023-01-24T15:11:06;1012.17;;;29.99;51.56
37170;BME280;23062;13.952;100.608;2023-01-24T15:15:32;1012.18;;;30.00;51.55
37170;BME280;23062;13.952;100.608;2023-01-24T15:20:08;1012.20;;;29.99;51.54
37170;BME280;23062;13.952;100.608;2023-01-24T15:24:35;1012.32;;;30.00;51.57
37170;BME280;23062;13.952;100.608;2023-01-24T15:33:44;1012.44;;;29.98;51.43
37170;BME280;23062;13.952;100.608;2023-01-24T15:38:22;1012.44;;;29.97;51.50
37170;BME280;23062;13.952;100.608;2023-01-24T15:42:48;1012.47;;;29.95;51.48
37170;BME280;23062;13.952;100.608;2023-01-24T15:47:34;1012.49;;;29.95;51.50
37170;BME280;23062;13.952;100.608;2023-01-24T15:56:37;1012.49;;;29.92;51.45
37170;BME280;23062;13.952;100.608;2023-01-24T16:01:06;1012.47;;;29.91;51.54
37170;BME280;23062;13.952;100.608;2023-01-24T16:05:32;1012.53;;;29.90;51.58
37170;BME280;23062;13.952;100.608;2023-01-24T16:09:56;1012.60;;;29.88;51.45
37170;BME280;23062;13.952;100.608;2023-01-24T16:14:23;1012.53;;;29.88;51.42
37170;BME280;23062;13.952;100.608;2023-01-24T16:18:49;1012.54;;;29.86;51.51
37170;BME280;23062;13.952;100.608;2023-01-24T16:23:18;1012.57;;;29.86;51.51
37170;BME280;23062;13.952;100.608;2023-01-24T16:27:43;1012.57;;;29.86;51.50
37170;BME280;23062;13.952;100.608;2023-01-24T16:32:16;1012.54;;;29.84;51.62
37170;BME280;23062;13.952;100.608;2023-01-24T16:36:39;1012.58;;;29.85;51.52
37170;BME280;23062;13.952;100.608;2023-01-24T16:41:05;1012.54;;;29.83;51.48
37170;BME280;23062;13.952;100.608;2023-01-24T16:45:30;1012.56;;;29.81;51.38
37170;BME280;23062;13.952;100.608;2023-01-24T16:49:56;1012.55;;;29.79;51.48
37170;BME280;23062;13.952;100.608;2023-01-24T16:54:21;1012.62;;;29.80;51.30
37170;BME280;23062;13.952;100.608;2023-01-24T16:58:47;1012.64;;;29.80;51.31
37170;BME280;23062;13.952;100.608;2023-01-24T17:03:12;1012.72;;;29.79;51.04
37170;BME280;23062;13.952;100.608;2023-01-24T17:07:40;1012.73;;;29.78;51.06
37170;BME280;23062;13.952;100.608;2023-01-24T17:12:06;1012.74;;;29.78;50.85
37170;BME280;23062;13.952;100.608;2023-01-24T17:16:32;1012.76;;;29.72;50.57
37170;BME280;23062;13.952;100.608;2023-01-24T17:21:01;1012.74;;;29.71;50.57
37170;BME280;23062;13.952;100.608;2023-01-24T17:25:29;1012.80;;;29.71;50.24
37170;BME280;23062;13.952;100.608;2023-01-24T17:29:55;1012.86;;;29.68;50.05
37170;BME280;23062;13.952;100.608;2023-01-24T17:34:21;1012.84;;;29.69;49.69
37170;BME280;23062;13.952;100.608;2023-01-24T17:38:46;1012.85;;;29.66;49.58
37170;BME280;23062;13.952;100.608;2023-01-24T17:43:12;1012.83;;;29.66;49.21
37170;BME280;23062;13.952;100.608;2023-01-24T17:47:37;1012.76;;;29.69;48.84
37170;BME280;23062;13.952;100.608;2023-01-24T17:52:02;1012.75;;;29.63;48.22
37170;BME280;23062;13.952;100.608;2023-01-24T17:56:30;1012.74;;;29.63;47.75
37170;BME280;23062;13.952;100.608;2023-01-24T18:00:55;1012.71;;;29.62;47.18
37170;BME280;23062;13.952;100.608;2023-01-24T18:05:21;1012.67;;;29.59;47.00
37170;BME280;23062;13.952;100.608;2023-01-24T18:09:50;1012.68;;;29.59;46.57
37170;BME280;23062;13.952;100.608;2023-01-24T18:14:18;1012.63;;;29.56;45.84
37170;BME280;23062;13.952;100.608;2023-01-24T18:18:43;1012.58;;;29.56;45.68
37170;BME280;23062;13.952;100.608;2023-01-24T18:23:11;1012.50;;;29.54;45.20
37170;BME280;23062;13.952;100.608;2023-01-24T18:27:36;1012.46;;;29.52;45.00
37170;BME280;23062;13.952;100.608;2023-01-24T18:32:01;1012.49;;;29.52;44.80
37170;BME280;23062;13.952;100.608;2023-01-24T18:36:27;1012.38;;;29.52;44.60
37170;BME280;23062;13.952;100.608;2023-01-24T18:40:53;1012.30;;;29.50;44.83
37170;BME280;23062;13.952;100.608;2023-01-24T18:45:20;1012.31;;;29.50;44.49
37170;BME280;23062;13.952;100.608;2023-01-24T18:49:52;1012.27;;;29.46;44.50
37170;BME280;23062;13.952;100.608;2023-01-24T18:54:18;1012.24;;;29.43;44.46
37170;BME280;23062;13.952;100.608;2023-01-24T18:58:43;1012.23;;;29.42;44.28
37170;BME280;23062;13.952;100.608;2023-01-24T19:03:09;1012.19;;;29.43;44.28
37170;BME280;23062;13.952;100.608;2023-01-24T19:07:39;1012.08;;;29.42;44.24
37170;BME280;23062;13.952;100.608;2023-01-24T19:12:08;1011.99;;;29.40;43.67
37170;BME280;23062;13.952;100.608;2023-01-24T19:16:37;1011.94;;;29.42;43.70
37170;BME280;23062;13.952;100.608;2023-01-24T19:21:10;1011.96;;;29.35;44.04
37170;BME280;23062;13.952;100.608;2023-01-24T19:25:35;1011.91;;;29.39;43.67
37170;BME280;23062;13.952;100.608;2023-01-24T19:30:00;1011.93;;;29.35;43.57
37170;BME280;23062;13.952;100.608;2023-01-24T19:34:25;1011.92;;;29.35;43.45
37170;BME280;23062;13.952;100.608;2023-01-24T19:38:53;1011.91;;;29.33;43.52
37170;BME280;23062;13.952;100.608;2023-01-24T19:43:18;1011.87;;;29.34;43.75
37170;BME280;23062;13.952;100.608;2023-01-24T19:47:43;1011.78;;;29.31;44.06
37170;BME280;23062;13.952;100.608;2023-01-24T19:52:08;1011.78;;;29.15;42.04
37170;BME280;23062;13.952;100.608;2023-01-24T19:56:33;1011.78;;;28.71;42.11
37170;BME280;23062;13.952;100.608;2023-01-24T20:01:16;1011.67;;;28.67;42.87
37170;BME280;23062;13.952;100.608;2023-01-24T20:05:42;1011.60;;;28.34;42.81
37170;BME280;23062;13.952;100.608;2023-01-24T20:10:07;1011.61;;;27.96;43.73
37170;BME280;23062;13.952;100.608;2023-01-24T20:14:33;1011.62;;;27.88;44.02
37170;BME280;23062;13.952;100.608;2023-01-24T20:19:00;1011.59;;;27.76;44.38
37170;BME280;23062;13.952;100.608;2023-01-24T20:23:25;1011.62;;;27.60;44.82
37170;BME280;23062;13.952;100.608;2023-01-24T20:27:53;1011.72;;;27.49;45.26
37170;BME280;23062;13.952;100.608;2023-01-24T20:32:17;1011.73;;;27.74;44.77
37170;BME280;23062;13.952;100.608;2023-01-24T20:36:46;1011.74;;;27.63;45.12
37170;BME280;23062;13.952;100.608;2023-01-24T20:41:13;1011.72;;;28.00;44.35
37170;BME280;23062;13.952;100.608;2023-01-24T20:45:38;1011.76;;;27.17;45.36
37170;BME280;23062;13.952;100.608;2023-01-24T20:50:06;1011.80;;;27.01;45.55
37170;BME280;23062;13.952;100.608;2023-01-24T20:54:31;1011.74;;;26.95;45.79
37170;BME280;23062;13.952;100.608;2023-01-24T20:59:01;1011.74;;;27.16;45.54
37170;BME280;23062;13.952;100.608;2023-01-24T21:03:27;1011.70;;;27.12;45.30
37170;BME280;23062;13.952;100.608;2023-01-24T21:07:52;1011.74;;;27.04;45.54
37170;BME280;23062;13.952;100.608;2023-01-24T21:12:17;1011.81;;;27.18;46.39
37170;BME280;23062;13.952;100.608;2023-01-24T21:16:46;1011.83;;;27.31;46.29
37170;BME280;23062;13.952;100.608;2023-01-24T21:21:11;1011.86;;;26.93;46.34
37170;BME280;23062;13.952;100.608;2023-01-24T21:25:36;1011.95;;;26.63;47.30
37170;BME280;23062;13.952;100.608;2023-01-24T21:30:01;1011.94;;;26.44;47.85
37170;BME280;23062;13.952;100.608;2023-01-24T21:34:27;1011.95;;;26.39;48.28
37170;BME280;23062;13.952;100.608;2023-01-24T21:38:51;1011.90;;;26.44;48.12
37170;BME280;23062;13.952;100.608;2023-01-24T21:43:19;1011.95;;;26.65;48.54
37170;BME280;23062;13.952;100.608;2023-01-24T21:47:44;1011.93;;;26.52;48.63
37170;BME280;23062;13.952;100.608;2023-01-24T21:52:12;1011.98;;;26.37;48.12
37170;BME280;23062;13.952;100.608;2023-01-24T21:56:42;1012.03;;;26.50;49.49
37170;BME280;23062;13.952;100.608;2023-01-24T22:01:25;1012.04;;;26.28;48.02
37170;BME280;23062;13.952;100.608;2023-01-24T22:05:52;1012.08;;;25.99;48.95
37170;BME280;23062;13.952;100.608;2023-01-24T22:10:18;1012.11;;;25.92;48.40
37170;BME280;23062;13.952;100.608;2023-01-24T22:14:44;1012.04;;;26.47;47.10
37170;BME280;23062;13.952;100.608;2023-01-24T22:19:11;1012.20;;;26.07;47.33
37170;BME280;23062;13.952;100.608;2023-01-24T22:23:37;1012.28;;;26.37;46.94
37170;BME280;23062;13.952;100.608;2023-01-24T22:28:04;1012.28;;;26.35;45.65
37170;BME280;23062;13.952;100.608;2023-01-24T22:32:30;1012.29;;;26.86;45.30
37170;BME280;23062;13.952;100.608;2023-01-24T22:37:04;1012.30;;;26.79;44.77
37170;BME280;23062;13.952;100.608;2023-01-24T22:41:27;1012.46;;;26.62;44.62
37170;BME280;23062;13.952;100.608;2023-01-24T22:45:51;1012.58;;;26.09;45.24
37170;BME280;23062;13.952;100.608;2023-01-24T22:50:19;1012.59;;;26.63;44.24
37170;BME280;23062;13.952;100.608;2023-01-24T22:54:45;1012.60;;;27.13;43.31
37170;BME280;23062;13.952;100.608;2023-01-24T22:59:10;1012.65;;;27.36;43.39
37170;BME280;23062;13.952;100.608;2023-01-24T23:03:35;1012.78;;;27.38;42.48
37170;BME280;23062;13.952;100.608;2023-01-24T23:08:04;1012.85;;;27.39;41.93
37170;BME280;23062;13.952;100.608;2023-01-24T23:12:30;1013.02;;;27.45;41.97
37170;BME280;23062;13.952;100.608;2023-01-24T23:17:15;1013.07;;;27.39;41.71
37170;BME280;23062;13.952;100.608;2023-01-24T23:21:41;1013.15;;;27.44;42.30
37170;BME280;23062;13.952;100.608;2023-01-24T23:26:06;1013.19;;;27.49;41.77
37170;BME280;23062;13.952;100.608;2023-01-24T23:30:55;1013.29;;;27.51;42.26
37170;BME280;23062;13.952;100.608;2023-01-24T23:35:20;1013.35;;;27.47;41.17
37170;BME280;23062;13.952;100.608;2023-01-24T23:39:45;1013.38;;;27.45;41.47
37170;BME280;23062;13.952;100.608;2023-01-24T23:44:10;1013.47;;;27.44;41.14
37170;BME280;23062;13.952;100.608;2023-01-24T23:48:36;1013.55;;;27.42;41.15
37170;BME280;23062;13.952;100.608;2023-01-24T23:53:05;1013.64;;;27.44;42.03
37170;BME280;23062;13.952;100.608;2023-01-24T23:57:30;1013.76;;;27.09;41.76
